Time;durP1;ratioP1;P1;durP2;ratioP2;P2;SDS_P1;SDS_P2;PMS_P1;PMS_P2;Temp;Humidity;BMP_temperature;BMP_pressure;BME280_temperature;BME280_humidity;BME280_pressure;Samples;Min_cycle;Max_cycle;Signal;HPM_P1;HPM_P2
2022/11/22 00:00:51;;;;;;;10.80;5.13;;;;;;;6.55;100.00;99080.38;5133416;27;20055;-65
2022/11/22 00:03:16;;;;;;;12.90;5.30;;;;;;;6.61;100.00;99084.78;5132183;28;20070;-66
2022/11/22 00:05:42;;;;;;;13.73;5.10;;;;;;;6.59;100.00;99084.75;5133437;27;20061;-66
2022/11/22 00:08:07;;;;;;;12.57;5.22;;;;;;;6.59;100.00;99087.38;5133423;28;20047;-65
2022/11/22 00:10:33;;;;;;;8.40;4.35;;;;;;;6.62;100.00;99079.50;5131966;28;20555;-65
2022/11/22 00:12:59;;;;;;;11.80;4.93;;;;;;;6.65;100.00;99094.38;5132173;28;20054;-66
2022/11/22 00:15:24;;;;;;;15.73;4.78;;;;;;;6.68;100.00;99079.50;5133405;27;20031;-66
2022/11/22 00:17:50;;;;;;;14.60;5.38;;;;;;;6.72;100.00;99077.72;5133320;28;20518;-65
2022/11/22 00:20:15;;;;;;;12.82;4.90;;;;;;;6.72;100.00;99077.72;5133241;28;20102;-66
2022/11/22 00:22:40;;;;;;;14.23;5.32;;;;;;;6.69;100.00;99081.25;5133033;28;20039;-66
2022/11/22 00:25:07;;;;;;;10.48;4.78;;;;;;;6.69;100.00;99076.00;5133197;28;20034;-66
2022/11/22 00:27:32;;;;;;;10.73;4.40;;;;;;;6.69;100.00;99083.00;5135291;27;20027;-66
2022/11/22 00:29:58;;;;;;;11.27;4.47;;;;;;;6.71;100.00;99079.50;5135433;27;20024;-66
2022/11/22 00:32:23;;;;;;;7.55;4.28;;;;;;;6.72;100.00;99081.25;5135659;27;20168;-65
2022/11/22 00:34:49;;;;;;;11.52;4.75;;;;;;;6.73;100.00;99083.00;5136875;27;20024;-65
2022/11/22 00:37:14;;;;;;;11.88;4.72;;;;;;;6.76;100.00;99080.34;5136806;27;20031;-65
2022/11/22 00:39:40;;;;;;;7.53;4.03;;;;;;;6.78;100.00;99077.75;5136576;27;20079;-65
2022/11/22 00:42:05;;;;;;;12.40;4.07;;;;;;;6.80;100.00;99082.97;5136531;27;20114;-66
2022/11/22 00:44:30;;;;;;;12.93;4.57;;;;;;;6.82;100.00;99075.97;5136671;27;20028;-64
2022/11/22 00:46:56;;;;;;;10.57;3.95;;;;;;;6.85;100.00;99083.81;5135306;27;20532;-66
2022/11/22 00:49:21;;;;;;;12.38;4.30;;;;;;;6.85;100.00;99079.47;5136628;27;20451;-64
2022/11/22 00:51:47;;;;;;;9.15;4.10;;;;;;;6.84;100.00;99082.97;5136511;27;20027;-65
2022/11/22 00:54:12;;;;;;;10.38;4.03;;;;;;;6.81;100.00;99076.84;5136233;27;20541;-66
2022/11/22 00:56:38;;;;;;;11.60;4.20;;;;;;;6.78;100.00;99081.22;5136287;27;20055;-65
2022/11/22 00:59:03;;;;;;;11.48;4.50;;;;;;;6.74;100.00;99082.13;5136356;27;20407;-65
2022/11/22 01:01:28;;;;;;;7.95;4.07;;;;;;;6.66;100.00;99069.88;5134980;27;20027;-65
2022/11/22 01:03:54;;;;;;;11.40;4.20;;;;;;;6.65;100.00;99066.38;5134811;27;20049;-65
2022/11/22 01:06:19;;;;;;;9.45;4.00;;;;;;;6.65;100.00;99070.78;5136063;27;20048;-65
2022/11/22 01:08:45;;;;;;;9.40;3.50;;;;;;;6.62;100.00;99062.91;5136366;27;20031;-65
2022/11/22 01:11:11;;;;;;;6.20;3.40;;;;;;;6.59;100.00;99074.25;5135964;27;20446;-64
2022/11/22 01:13:36;;;;;;;9.57;3.55;;;;;;;6.57;100.00;99078.66;5136014;27;20027;-65
2022/11/22 01:16:05;;;;;;;12.38;3.70;;;;;;;6.53;100.00;99083.03;5135941;27;20050;-65
2022/11/22 01:18:31;;;;;;;10.55;3.35;;;;;;;6.50;100.00;99079.53;5135850;27;20035;-66
2022/11/22 01:20:56;;;;;;;8.98;3.70;;;;;;;6.49;100.00;99077.78;5135957;27;20175;-65
2022/11/22 01:23:22;;;;;;;11.38;3.63;;;;;;;6.45;100.00;99079.53;5135766;27;20028;-65
2022/11/22 01:25:47;;;;;;;9.73;3.40;;;;;;;6.42;100.00;99086.53;5134296;27;20030;-65
2022/11/22 01:28:15;;;;;;;11.80;3.60;;;;;;;6.37;100.00;99083.91;5135650;27;20020;-65
2022/11/22 01:30:41;;;;;;;10.60;3.17;;;;;;;6.38;100.00;99088.31;5135621;27;20027;-65
2022/11/22 01:33:07;;;;;;;14.82;3.92;;;;;;;6.33;100.00;99081.28;5135879;27;20027;-65
2022/11/22 01:35:32;;;;;;;11.95;3.50;;;;;;;6.31;100.00;99094.41;5135599;27;20499;-65
2022/11/22 01:37:58;;;;;;;11.57;4.00;;;;;;;6.30;100.00;99104.91;5135471;27;20042;-65
2022/11/22 01:40:24;;;;;;;13.65;4.28;;;;;;;6.25;100.00;99099.66;5133650;27;20446;-65
2022/11/22 01:42:53;;;;;;;11.95;3.80;;;;;;;6.22;100.00;99091.81;5135278;27;20088;-65
2022/11/22 01:45:28;;;;;;;9.45;3.70;;;;;;;6.21;100.00;99097.91;5135385;27;20015;-65
2022/11/22 01:47:57;;;;;;;16.38;3.65;;;;;;;6.19;100.00;99100.53;5135208;27;20091;-65
2022/11/22 01:50:22;;;;;;;12.32;3.67;;;;;;;6.17;100.00;99106.66;5135311;27;20062;-65
2022/11/22 01:52:48;;;;;;;10.13;3.25;;;;;;;6.14;100.00;99107.53;5135275;27;20074;-65
2022/11/22 01:55:13;;;;;;;11.07;3.45;;;;;;;6.13;100.00;99107.53;5135408;27;20026;-65
2022/11/22 01:57:41;;;;;;;10.63;3.45;;;;;;;6.11;100.00;99106.66;5135415;27;20027;-65
2022/11/22 02:00:09;;;;;;;15.73;3.45;;;;;;;6.13;100.00;99115.41;5135098;27;20428;-65
2022/11/22 02:02:36;;;;;;;10.27;3.40;;;;;;;6.12;100.00;99111.88;5135108;27;20024;-65
2022/11/22 02:05:05;;;;;;;11.95;2.95;;;;;;;6.13;100.00;99113.66;5135073;27;20480;-65
2022/11/22 02:07:49;;;;;;;14.00;3.28;;;;;;;6.11;100.00;99111.91;5134819;27;20034;-65
2022/11/22 02:10:20;;;;;;;13.60;3.10;;;;;;;6.09;100.00;99114.53;5134883;27;20392;-65
2022/11/22 02:12:49;;;;;;;10.70;2.90;;;;;;;6.11;100.00;99119.75;5134983;27;20035;-65
2022/11/22 02:15:14;;;;;;;12.68;3.25;;;;;;;6.09;100.00;99119.78;5134770;27;20490;-65
2022/11/22 02:17:40;;;;;;;12.80;3.38;;;;;;;6.08;100.00;99112.78;5134702;27;20027;-64
2022/11/22 02:20:06;;;;;;;17.05;3.28;;;;;;;6.07;100.00;99118.88;5133515;27;20434;-65
2022/11/22 02:22:52;;;;;;;15.57;3.35;;;;;;;6.06;100.00;99125.00;5133700;27;20106;-65
2022/11/22 02:25:36;;;;;;;20.75;4.97;;;;;;;6.05;100.00;99125.00;5134687;27;20030;-65
2022/11/22 02:28:03;;;;;;;17.73;3.50;;;;;;;6.03;100.00;99118.00;5134888;27;20050;-65
2022/11/22 02:30:28;;;;;;;12.95;3.20;;;;;;;6.05;100.00;99118.00;5134597;27;20031;-65
2022/11/22 02:32:54;;;;;;;16.50;3.50;;;;;;;6.01;100.00;99122.38;5134736;27;20557;-65
2022/11/22 02:35:24;;;;;;;14.02;3.88;;;;;;;6.01;100.00;99117.13;5134461;27;20019;-65
2022/11/22 02:38:11;;;;;;;16.38;3.60;;;;;;;5.99;100.00;99126.72;5134796;27;20023;-65
2022/11/22 02:40:43;;;;;;;14.98;3.58;;;;;;;5.97;100.00;99132.84;5133850;27;20051;-65
2022/11/22 02:43:13;;;;;;;16.70;3.15;;;;;;;5.95;100.00;99132.88;5134439;27;20114;-66
2022/11/22 02:45:38;;;;;;;16.60;3.40;;;;;;;5.94;100.00;99127.59;5134894;27;20483;-65
2022/11/22 02:48:15;;;;;;;13.50;3.75;;;;;;;5.93;100.00;99136.34;5134387;27;20098;-65
2022/11/22 02:50:41;;;;;;;14.55;3.28;;;;;;;5.93;100.00;99138.97;5133937;27;20110;-65
2022/11/22 02:53:07;;;;;;;14.48;3.80;;;;;;;5.92;100.00;99142.47;5134536;27;20147;-65
2022/11/22 02:55:33;;;;;;;15.63;3.20;;;;;;;5.91;100.00;99140.66;5134239;27;20030;-64
2022/11/22 02:57:59;;;;;;;15.27;3.40;;;;;;;5.89;100.00;99150.28;5134150;27;20031;-64
2022/11/22 03:00:25;;;;;;;17.27;3.50;;;;;;;5.88;100.00;99141.53;5134237;27;20072;-65
2022/11/22 03:02:50;;;;;;;11.90;3.00;;;;;;;5.86;100.00;99145.91;5134129;27;20114;-64
2022/11/22 03:05:15;;;;;;;17.80;3.40;;;;;;;5.84;100.00;99138.91;5134018;27;20476;-65
2022/11/22 03:07:41;;;;;;;15.98;4.07;;;;;;;5.84;99.59;99138.91;5133915;27;20418;-65
2022/11/22 03:10:07;;;;;;;13.13;3.10;;;;;;;5.82;99.55;99138.03;5133828;27;20445;-65
2022/11/22 03:12:32;;;;;;;15.15;3.47;;;;;;;5.78;99.48;99155.47;5133941;27;20038;-65
2022/11/22 03:14:58;;;;;;;14.27;3.22;;;;;;;5.75;99.80;99145.88;5132487;27;20023;-65
2022/11/22 03:17:23;;;;;;;19.58;3.50;;;;;;;5.74;99.42;99144.13;5133758;27;20023;-64
2022/11/22 03:19:48;;;;;;;15.82;3.35;;;;;;;5.72;99.03;99152.84;5133798;27;20023;-64
2022/11/22 03:22:14;;;;;;;13.00;3.30;;;;;;;5.70;98.61;99159.84;5132556;28;20114;-65
2022/11/22 03:24:39;;;;;;;13.65;3.28;;;;;;;5.65;98.51;99162.47;5133751;28;20377;-68
2022/11/22 03:27:05;;;;;;;16.70;3.10;;;;;;;5.66;98.58;99160.72;5133705;27;20020;-64
2022/11/22 03:29:30;;;;;;;22.50;4.00;;;;;;;5.62;99.31;99169.44;5133751;27;20021;-64
2022/11/22 03:31:55;;;;;;;13.50;2.95;;;;;;;5.60;99.31;99165.91;5133790;28;20023;-64
2022/11/22 03:34:21;;;;;;;17.70;3.13;;;;;;;5.57;98.52;99169.41;5133700;28;20106;-64
2022/11/22 03:36:46;;;;;;;13.27;3.25;;;;;;;5.53;99.05;99163.28;5133698;28;20034;-65
2022/11/22 03:39:12;;;;;;;13.25;3.58;;;;;;;5.47;98.66;99165.84;5132430;28;20058;-64
2022/11/22 03:41:37;;;;;;;16.13;3.35;;;;;;;5.47;98.65;99170.22;5133255;28;20137;-64
2022/11/22 03:44:03;;;;;;;19.15;3.25;;;;;;;5.44;98.49;99181.59;5133641;27;20031;-65
2022/11/22 03:46:28;;;;;;;14.20;3.15;;;;;;;5.40;98.68;99177.19;5133540;27;20384;-65
2022/11/22 03:48:54;;;;;;;14.82;3.22;;;;;;;5.38;98.65;99165.81;5133911;27;20528;-64
2022/11/22 03:51:19;;;;;;;16.17;3.10;;;;;;;5.36;98.69;99172.81;5133635;28;20516;-64
2022/11/22 03:53:45;;;;;;;18.70;3.45;;;;;;;5.32;98.46;99170.19;5133637;28;20031;-64
2022/11/22 03:56:10;;;;;;;13.68;2.95;;;;;;;5.30;98.66;99177.13;5133640;27;20076;-64
2022/11/22 03:58:35;;;;;;;13.63;2.97;;;;;;;5.27;98.58;99168.41;5133489;27;20480;-64
2022/11/22 04:01:01;;;;;;;14.73;3.65;;;;;;;5.27;98.70;99168.41;5133495;27;20023;-64
2022/11/22 04:03:27;;;;;;;17.48;3.35;;;;;;;5.23;98.63;99174.50;5137205;27;20019;-64
2022/11/22 04:05:52;;;;;;;15.82;2.90;;;;;;;5.23;98.60;99173.63;5137678;27;20373;-64
2022/11/22 04:08:18;;;;;;;19.63;3.17;;;;;;;5.21;98.94;99180.59;5137407;27;20054;-64
2022/11/22 04:10:43;;;;;;;12.90;2.97;;;;;;;5.17;98.62;99163.97;5137366;27;20023;-64
2022/11/22 04:13:08;;;;;;;13.73;2.92;;;;;;;5.15;98.73;99172.72;5137291;27;20531;-64
2022/11/22 04:15:35;;;;;;;16.35;3.47;;;;;;;5.10;98.57;99177.91;5137240;27;20034;-64
2022/11/22 04:18:00;;;;;;;15.20;3.40;;;;;;;5.09;98.37;99180.50;5137198;27;20114;-65
2022/11/22 04:23:15;;;;;;;10.65;2.60;;;;;;;5.08;98.10;99186.63;5137548;27;20038;-64
2022/11/22 04:25:43;;;;;;;17.17;3.50;;;;;;;5.02;99.15;99185.72;5137325;27;20094;-64
2022/11/22 04:28:10;;;;;;;12.15;3.30;;;;;;;4.99;98.81;99197.91;5137325;27;20027;-64
2022/11/22 04:33:20;;;;;;;16.60;3.10;;;;;;;4.99;98.82;99203.16;5137227;27;20030;-64
2022/11/22 04:35:46;;;;;;;11.60;3.08;;;;;;;4.97;98.59;99197.03;5135568;27;20059;-71
2022/11/22 04:38:13;;;;;;;11.07;2.72;;;;;;;4.92;99.08;99191.75;5136819;27;20084;-64
2022/11/22 04:40:39;;;;;;;14.38;2.97;;;;;;;4.87;98.70;99190.84;5136435;27;20034;-64
2022/11/22 04:45:50;;;;;;;17.95;3.33;;;;;;;4.81;99.33;99197.78;5137066;27;20101;-64
2022/11/22 04:48:17;;;;;;;11.73;3.17;;;;;;;4.80;99.11;99204.78;5136594;27;20023;-64
2022/11/22 04:53:34;;;;;;;12.57;3.13;;;;;;;4.76;99.12;99203.88;5120111;27;20067;-64
2022/11/22 04:56:00;;;;;;;12.50;3.70;;;;;;;4.77;98.72;99203.00;5136421;27;20444;-64
2022/11/22 04:58:25;;;;;;;14.27;2.90;;;;;;;4.76;98.44;99201.25;5136369;27;20027;-64
2022/11/22 05:00:50;;;;;;;14.85;2.75;;;;;;;4.75;98.73;99203.81;5136365;27;20012;-65
2022/11/22 05:03:16;;;;;;;14.63;3.03;;;;;;;4.70;98.39;99200.31;5136362;27;20110;-64
2022/11/22 05:05:43;;;;;;;8.50;2.60;;;;;;;4.67;98.52;99205.53;5136172;27;20026;-64
2022/11/22 05:08:10;;;;;;;9.02;2.65;;;;;;;4.64;98.54;99208.13;5136053;27;20028;-64
2022/11/22 05:13:22;;;;;;;12.60;3.10;;;;;;;4.60;98.13;99211.56;5136021;27;20100;-64
2022/11/22 05:15:50;;;;;;;19.63;3.20;;;;;;;4.59;98.76;99220.28;5136123;27;20392;-64
2022/11/22 05:18:17;;;;;;;16.90;2.90;;;;;;;4.59;98.91;99208.09;5136284;27;20451;-64
2022/11/22 05:20:42;;;;;;;14.32;2.90;;;;;;;4.62;98.24;99212.44;5135734;27;20035;-64
2022/11/22 05:25:52;;;;;;;7.68;2.70;;;;;;;4.58;98.48;99215.91;5136138;27;20046;-68
2022/11/22 05:28:17;;;;;;;8.68;2.70;;;;;;;4.54;98.33;99212.41;5134615;27;20388;-64
2022/11/22 05:30:42;;;;;;;11.25;2.85;;;;;;;4.52;98.70;99206.28;5135766;27;20027;-64
2022/11/22 05:33:08;;;;;;;12.15;2.63;;;;;;;4.53;97.69;99201.03;5135731;27;20027;-64
2022/11/22 05:35:33;;;;;;;15.88;2.90;;;;;;;4.51;97.82;99200.16;5135600;27;20033;-64
2022/11/22 05:37:59;;;;;;;10.35;2.70;;;;;;;4.47;98.30;99202.75;5135565;27;20075;-64
2022/11/22 05:40:25;;;;;;;11.27;2.60;;;;;;;4.46;97.71;99208.84;5133781;27;20055;-65
2022/11/22 05:42:51;;;;;;;9.48;2.38;;;;;;;4.45;97.74;99207.97;5135543;27;20042;-64
2022/11/22 05:45:16;;;;;;;10.35;2.65;;;;;;;4.44;98.42;99198.34;5135442;27;20027;-64
2022/11/22 05:47:42;;;;;;;10.15;2.95;;;;;;;4.43;98.07;99209.69;5134075;27;20026;-64
2022/11/22 05:50:08;;;;;;;13.95;3.20;;;;;;;4.41;98.03;99208.81;5135430;27;20027;-64
2022/11/22 05:52:34;;;;;;;15.90;3.10;;;;;;;4.39;97.90;99214.88;5135337;27;20027;-64
2022/11/22 05:54:59;;;;;;;11.73;2.58;;;;;;;4.39;97.99;99214.88;5135264;27;20084;-63
2022/11/22 05:57:25;;;;;;;9.85;2.85;;;;;;;4.38;98.66;99211.38;5135353;27;20391;-64
2022/11/22 05:59:51;;;;;;;12.80;3.20;;;;;;;4.38;97.83;99216.63;5135282;27;20461;-64
2022/11/22 06:02:16;;;;;;;15.93;2.80;;;;;;;4.39;98.10;99212.25;5135180;27;20055;-64
2022/11/22 06:04:42;;;;;;;15.85;3.30;;;;;;;4.39;97.96;99207.91;5134916;27;20026;-63
2022/11/22 06:07:07;;;;;;;11.52;2.90;;;;;;;4.38;98.24;99205.28;5134988;27;20024;-63
2022/11/22 06:09:32;;;;;;;14.18;2.88;;;;;;;4.38;97.79;99215.75;5135051;27;20346;-64
2022/11/22 06:11:58;;;;;;;9.57;2.80;;;;;;;4.39;98.05;99214.88;5134562;27;20460;-64
2022/11/22 06:14:23;;;;;;;13.60;2.85;;;;;;;4.38;98.11;99216.63;5134712;27;20050;-64
2022/11/22 06:16:50;;;;;;;14.43;3.28;;;;;;;4.37;97.46;99212.25;5133010;27;20383;-64
2022/11/22 06:19:15;;;;;;;13.38;2.65;;;;;;;4.36;97.13;99212.22;5134777;27;20098;-64
2022/11/22 06:21:41;;;;;;;12.23;2.75;;;;;;;4.34;97.26;99219.19;5135008;27;20050;-64
2022/11/22 06:24:07;;;;;;;6.97;2.50;;;;;;;4.36;97.34;99220.06;5134073;27;20031;-64
2022/11/22 06:26:32;;;;;;;12.10;3.00;;;;;;;4.32;97.70;99215.66;5134414;27;20476;-64
2022/11/22 06:28:58;;;;;;;11.93;2.58;;;;;;;4.31;97.65;99222.63;5134682;27;20464;-63
2022/11/22 06:31:25;;;;;;;11.13;2.72;;;;;;;4.30;97.55;99220.03;5134646;27;20031;-64
2022/11/22 06:33:58;;;;;;;12.02;2.72;;;;;;;4.32;97.29;99221.78;5134559;27;20023;-64
2022/11/22 06:36:28;;;;;;;15.68;3.33;;;;;;;4.32;97.27;99224.38;5134482;27;20030;-64
2022/11/22 06:38:54;;;;;;;10.30;2.75;;;;;;;4.31;96.94;99222.63;5134778;27;20023;-64
2022/11/22 06:41:22;;;;;;;12.98;2.58;;;;;;;4.31;97.57;99222.63;5134032;27;20445;-64
2022/11/22 06:43:49;;;;;;;12.68;2.70;;;;;;;4.30;97.21;99217.41;5134340;27;20110;-64
2022/11/22 06:46:21;;;;;;;10.85;2.60;;;;;;;4.25;97.19;99233.06;5134330;27;20034;-63
2022/11/22 06:48:48;;;;;;;6.93;2.58;;;;;;;4.28;97.51;99233.06;5134361;27;20030;-64
2022/11/22 06:51:21;;;;;;;13.27;3.05;;;;;;;4.21;96.83;99239.09;5134311;27;20019;-64
2022/11/22 06:53:48;;;;;;;6.82;2.42;;;;;;;4.16;97.14;99231.22;5133019;27;20507;-64
2022/11/22 06:56:28;;;;;;;10.90;2.70;;;;;;;4.14;97.57;99237.28;5134398;27;20039;-64
2022/11/22 06:58:54;;;;;;;8.93;2.42;;;;;;;4.15;97.23;99249.47;5134425;27;20023;-64
2022/11/22 07:01:25;;;;;;;14.10;2.80;;;;;;;4.15;98.57;99255.59;5134149;27;20492;-64
2022/11/22 07:03:54;;;;;;;12.00;2.88;;;;;;;4.15;97.66;99255.59;5132728;27;20388;-64
2022/11/22 07:06:20;;;;;;;11.65;2.90;;;;;;;4.18;97.97;99253.00;5133962;27;20035;-64
2022/11/22 07:08:46;;;;;;;15.63;3.05;;;;;;;4.17;97.92;99261.72;5133972;27;20148;-63
2022/11/22 07:11:14;;;;;;;9.93;2.92;;;;;;;4.19;98.61;99272.19;5134077;27;20072;-63
2022/11/22 07:13:40;;;;;;;9.98;2.72;;;;;;;4.22;98.62;99278.31;5134235;27;20129;-64
2022/11/22 07:16:07;;;;;;;9.90;2.67;;;;;;;4.25;98.43;99275.75;5134259;27;20380;-63
2022/11/22 07:18:33;;;;;;;13.98;2.88;;;;;;;4.30;98.30;99270.56;5133928;27;20430;-64
2022/11/22 07:21:01;;;;;;;14.75;3.05;;;;;;;4.36;97.32;99267.13;5134168;27;20102;-64
2022/11/22 07:23:27;;;;;;;13.98;2.97;;;;;;;4.38;97.79;99274.16;5134047;27;20186;-63
2022/11/22 07:25:52;;;;;;;8.30;2.40;;;;;;;4.40;97.50;99269.78;5133971;27;20110;-64
2022/11/22 07:28:17;;;;;;;10.48;3.38;;;;;;;4.41;97.04;99266.34;5133703;28;20103;-64
2022/11/22 07:30:43;;;;;;;12.73;2.60;;;;;;;4.42;97.49;99262.84;5132636;28;20481;-64
2022/11/22 07:33:08;;;;;;;17.65;3.15;;;;;;;4.43;97.54;99271.56;5133727;27;20023;-63
2022/11/22 07:35:35;;;;;;;15.02;3.33;;;;;;;4.43;97.27;99269.84;5134464;27;20032;-64
2022/11/22 07:38:00;;;;;;;10.93;2.47;;;;;;;4.47;97.27;99269.00;5138098;27;20118;-63
2022/11/22 07:40:26;;;;;;;11.60;2.75;;;;;;;4.48;97.08;99275.09;5137709;27;20082;-63
2022/11/22 07:42:52;;;;;;;13.20;2.85;;;;;;;4.52;96.28;99275.16;5137810;27;20039;-64
2022/11/22 07:45:17;;;;;;;9.23;2.78;;;;;;;4.55;96.67;99273.44;5136655;27;20046;-64
2022/11/22 07:47:43;;;;;;;12.38;3.15;;;;;;;4.55;96.56;99274.31;5137766;27;20503;-63
2022/11/22 07:50:09;;;;;;;12.57;2.67;;;;;;;4.59;95.97;99268.25;5137793;27;20023;-63
2022/11/22 07:52:34;;;;;;;12.70;2.97;;;;;;;4.60;96.50;99263.91;5137734;27;20084;-64
2022/11/22 07:55:00;;;;;;;10.23;2.80;;;;;;;4.58;96.34;99262.97;5136625;27;20114;-63
2022/11/22 07:57:25;;;;;;;11.13;3.10;;;;;;;4.63;96.68;99269.16;5137838;27;20038;-63
2022/11/22 07:59:51;;;;;;;15.55;2.65;;;;;;;4.64;96.07;99271.78;5137582;27;20387;-63
2022/11/22 08:02:16;;;;;;;12.63;3.13;;;;;;;4.66;96.43;99269.16;5137516;27;20059;-63
2022/11/22 08:04:41;;;;;;;12.25;2.70;;;;;;;4.69;96.15;99277.06;5137476;27;20384;-63
2022/11/22 08:07:08;;;;;;;12.23;2.85;;;;;;;4.72;96.05;99274.47;5136178;27;20019;-63
2022/11/22 08:09:33;;;;;;;12.85;2.78;;;;;;;4.77;95.77;99273.63;5136376;27;20072;-63
2022/11/22 08:11:59;;;;;;;10.10;2.45;;;;;;;4.82;95.20;99273.69;5137279;27;20110;-63
2022/11/22 08:14:25;;;;;;;10.05;2.60;;;;;;;4.87;95.12;99278.94;5136053;27;20034;-63
2022/11/22 08:16:51;;;;;;;9.93;2.85;;;;;;;4.87;95.25;99269.34;5137312;27;20076;-63
2022/11/22 08:19:16;;;;;;;11.27;2.55;;;;;;;4.91;94.92;99278.97;5137085;27;20027;-63
2022/11/22 08:21:46;;;;;;;8.60;2.55;;;;;;;4.92;95.21;99275.50;5137120;27;20103;-64
2022/11/22 08:24:14;;;;;;;14.00;2.85;;;;;;;4.96;95.03;99284.25;5137545;27;20031;-63
2022/11/22 08:26:39;;;;;;;9.30;2.88;;;;;;;5.00;94.39;99278.19;5137100;27;20027;-67
2022/11/22 08:29:07;;;;;;;11.20;3.05;;;;;;;5.01;94.49;99283.44;5135795;27;20361;-63
2022/11/22 08:31:33;;;;;;;13.25;2.70;;;;;;;5.03;94.52;99278.22;5136990;27;20027;-63
2022/11/22 08:33:58;;;;;;;10.30;2.90;;;;;;;5.06;94.65;99285.22;5135563;27;20026;-63
2022/11/22 08:36:25;;;;;;;12.35;2.65;;;;;;;5.07;94.56;99287.84;5135708;27;20068;-63
2022/11/22 08:38:50;;;;;;;10.82;2.55;;;;;;;5.09;94.36;99293.94;5118877;27;20031;-63
2022/11/22 08:41:15;;;;;;;12.70;2.70;;;;;;;5.12;94.15;99290.50;5136360;27;20572;-63
2022/11/22 08:43:41;;;;;;;9.85;2.40;;;;;;;5.14;94.11;99280.91;5136992;27;20030;-64
2022/11/22 08:46:06;;;;;;;10.57;2.80;;;;;;;5.15;94.62;99288.78;5135477;27;20594;-63
2022/11/22 08:48:35;;;;;;;8.50;2.50;;;;;;;5.17;94.32;99291.41;5135735;27;20082;-63
2022/11/22 08:51:05;;;;;;;8.18;2.47;;;;;;;5.19;94.45;99298.41;5135283;27;20023;-63
2022/11/22 08:53:36;;;;;;;12.07;2.88;;;;;;;5.23;94.20;99296.69;5136638;27;20489;-63
2022/11/22 08:56:04;;;;;;;11.75;2.70;;;;;;;5.25;94.10;99295.81;5136811;27;20062;-63
2022/11/22 08:58:31;;;;;;;14.20;3.25;;;;;;;5.30;93.73;99294.97;5136437;27;20046;-63
2022/11/22 09:01:03;;;;;;;9.30;2.80;;;;;;;5.34;93.44;99302.00;5136429;27;20119;-63
2022/11/22 09:03:28;;;;;;;13.47;2.77;;;;;;;5.38;94.01;99303.78;5136712;27;20174;-63
2022/11/22 09:05:59;;;;;;;7.88;2.60;;;;;;;5.41;93.99;99299.44;5136299;27;20061;-63
2022/11/22 09:08:25;;;;;;;11.77;2.85;;;;;;;5.45;93.99;99292.47;5136267;27;20165;-63
2022/11/22 09:10:50;;;;;;;9.18;2.75;;;;;;;5.48;93.13;99292.47;5136015;27;20106;-63
2022/11/22 09:13:15;;;;;;;7.20;2.60;;;;;;;5.55;93.31;99304.75;5136027;27;20042;-63
2022/11/22 09:15:41;;;;;;;5.65;2.58;;;;;;;5.56;92.81;99306.50;5136243;27;20369;-63
2022/11/22 09:18:06;;;;;;;9.32;2.88;;;;;;;5.58;92.38;99310.03;5134621;27;20039;-63
2022/11/22 09:20:31;;;;;;;10.60;2.45;;;;;;;5.61;92.84;99309.16;5136079;27;20030;-63
2022/11/22 09:22:57;;;;;;;15.05;2.70;;;;;;;5.63;92.79;99312.66;5135949;27;20033;-63
2022/11/22 09:25:22;;;;;;;13.75;2.83;;;;;;;5.65;93.08;99308.28;5135974;27;20422;-63
2022/11/22 09:27:47;;;;;;;7.50;2.42;;;;;;;5.73;92.16;99306.59;5135929;27;20027;-63
2022/11/22 09:30:13;;;;;;;4.88;2.28;;;;;;;5.85;91.65;99305.78;5136134;27;20065;-63
2022/11/22 09:32:39;;;;;;;7.75;2.35;;;;;;;5.91;91.20;99314.56;5117326;27;20033;-63
2022/11/22 09:35:04;;;;;;;6.15;2.60;;;;;;;5.94;92.17;99305.88;5135804;27;20106;-63
2022/11/22 09:37:30;;;;;;;10.60;2.45;;;;;;;5.95;91.46;99307.59;5134518;27;20031;-62
2022/11/22 09:39:56;;;;;;;12.00;2.90;;;;;;;5.99;91.47;99305.00;5135739;27;20138;-63
2022/11/22 09:42:38;;;;;;;14.55;2.80;;;;;;;6.08;91.53;99303.28;5135257;27;20565;-63
2022/11/22 09:45:36;;;;;;;7.95;2.50;;;;;;;6.11;91.62;99301.56;5135649;27;20503;-63
2022/11/22 09:48:25;;;;;;;6.70;2.55;;;;;;;6.15;91.10;99303.34;5135422;27;20027;-63
2022/11/22 09:51:10;;;;;;;8.57;2.70;;;;;;;6.17;90.59;99304.22;5134295;27;20034;-63
2022/11/22 09:53:39;;;;;;;7.47;2.40;;;;;;;6.22;89.83;99312.13;5135382;27;20460;-62
2022/11/22 09:56:11;;;;;;;8.77;2.25;;;;;;;6.23;89.90;99311.22;5135328;27;20048;-63
2022/11/22 09:58:46;;;;;;;10.02;2.30;;;;;;;6.27;89.40;99316.50;5134777;27;20023;-63
2022/11/22 10:01:40;;;;;;;6.05;2.22;;;;;;;6.26;89.60;99314.75;5135020;27;20031;-63
2022/11/22 10:04:13;;;;;;;9.52;2.50;;;;;;;6.23;89.85;99317.34;5135222;27;20038;-62
2022/11/22 10:06:42;;;;;;;;;;;;;;;6.24;89.61;99320.84;5135927;27;20042;-63
2022/11/22 10:09:32;;;;;;;8.32;2.20;;;;;;;6.24;89.99;99323.47;5135048;27;19923;-63
2022/11/22 10:12:23;;;;;;;8.38;2.50;;;;;;;6.23;90.00;99314.72;5134719;27;20065;-63
2022/11/22 10:15:06;;;;;;;6.15;2.05;;;;;;;6.21;89.73;99321.72;5134143;27;20019;-63
2022/11/22 10:18:10;;;;;;;7.22;2.40;;;;;;;6.23;90.35;99313.84;5133612;27;20054;-63
2022/11/22 10:20:40;;;;;;;7.45;2.08;;;;;;;6.23;90.18;99309.47;5051398;28;20029;-63
2022/11/22 10:23:21;;;;;;;6.13;2.10;;;;;;;6.19;90.56;99315.59;5119736;27;20043;-63
2022/11/22 10:25:57;;;;;;;5.18;2.00;;;;;;;6.19;91.46;99304.22;5134795;27;20020;-63
2022/11/22 10:28:37;;;;;;;7.75;2.10;;;;;;;6.17;91.44;99312.09;5134889;27;20051;-63
2022/11/22 10:31:19;;;;;;;7.28;2.25;;;;;;;6.14;91.11;99298.97;5133415;27;20430;-63
2022/11/22 10:34:00;;;;;;;8.15;2.47;;;;;;;6.12;91.51;99298.06;5134594;27;20019;-63
2022/11/22 10:36:47;;;;;;;6.15;2.08;;;;;;;6.13;91.48;99301.59;5133469;27;20053;-63
2022/11/22 10:39:36;;;;;;;6.88;2.40;;;;;;;6.12;91.47;99300.69;5134481;27;20465;-63
2022/11/22 10:42:39;;;;;;;7.75;2.47;;;;;;;6.13;91.88;99297.22;5134157;27;20043;-62
2022/11/22 10:45:05;;;;;;;5.88;2.00;;;;;;;6.17;91.68;99293.75;5050997;28;20470;-62
2022/11/22 10:47:42;;;;;;;6.28;2.15;;;;;;;6.19;91.58;99285.88;5050894;28;20033;-63
2022/11/22 10:50:22;;;;;;;6.75;2.05;;;;;;;6.12;91.60;99271.84;5096077;27;20050;-63
2022/11/22 10:53:01;;;;;;;3.28;1.85;;;;;;;6.26;90.87;99299.00;5134323;27;20496;-62
2022/11/22 10:56:04;;;;;;;7.18;2.42;;;;;;;6.32;91.19;99299.91;5134435;27;20442;-62
2022/11/22 10:58:47;;;;;;;9.15;2.35;;;;;;;6.36;91.29;99291.16;5133995;27;20020;-63
2022/11/22 11:01:18;;;;;;;7.15;2.13;;;;;;;6.41;90.46;99290.28;5133789;27;20043;-63
2022/11/22 11:03:46;;;;;;;4.47;2.20;;;;;;;6.47;89.63;99287.69;5134112;27;20083;-61
2022/11/22 11:06:37;;;;;;;3.65;1.90;;;;;;;6.49;88.85;99279.81;5132797;27;20019;-62
2022/11/22 11:09:09;;;;;;;6.63;1.92;;;;;;;6.53;89.30;99268.47;5134059;27;20030;-63
2022/11/22 11:11:38;;;;;;;4.13;1.95;;;;;;;6.56;88.68;99268.47;5132352;27;20075;-63
2022/11/22 11:14:18;;;;;;;6.63;1.90;;;;;;;6.58;88.38;99263.22;5133057;27;20095;-62
2022/11/22 11:16:43;;;;;;;5.25;2.10;;;;;;;6.60;88.26;99262.34;5134068;27;20027;-62
2022/11/22 11:19:18;;;;;;;3.42;1.88;;;;;;;6.64;87.59;99265.88;5115954;27;20023;-62
2022/11/22 11:21:44;;;;;;;5.68;1.90;;;;;;;6.65;87.63;99264.97;5133901;27;20019;-62
2022/11/22 11:24:16;;;;;;;3.60;1.90;;;;;;;6.67;87.38;99258.84;5133662;27;20349;-62
2022/11/22 11:26:50;;;;;;;4.97;1.70;;;;;;;6.71;87.35;99250.09;5133847;28;20023;-62
2022/11/22 11:29:15;;;;;;;3.35;1.77;;;;;;;6.71;86.31;99251.84;5134154;28;20030;-63
2022/11/22 11:32:03;;;;;;;3.30;1.67;;;;;;;6.71;87.71;99252.72;5134018;28;20031;-63
2022/11/22 11:34:31;;;;;;;5.35;2.00;;;;;;;6.73;86.42;99245.75;5133844;28;20024;-62
2022/11/22 11:36:57;;;;;;;2.40;1.63;;;;;;;6.77;87.00;99236.13;5133891;28;20031;-62
2022/11/22 11:39:27;;;;;;;3.22;1.83;;;;;;;6.79;86.11;99244.84;5133871;28;20034;-62
2022/11/22 11:41:53;;;;;;;5.20;1.70;;;;;;;6.80;87.29;99241.34;5133358;28;20039;-62
2022/11/22 11:44:35;;;;;;;2.88;1.70;;;;;;;6.82;87.22;99242.25;5133634;28;20026;-62
2022/11/22 11:47:01;;;;;;;3.90;1.70;;;;;;;6.87;86.79;99239.63;5133878;28;20037;-62
2022/11/22 11:49:32;;;;;;;2.55;1.73;;;;;;;6.88;87.17;99229.09;5133653;28;20019;-63
2022/11/22 11:52:08;;;;;;;2.60;1.70;;;;;;;6.91;86.15;99238.75;5116212;28;20050;-62
2022/11/22 11:54:37;;;;;;;2.72;1.40;;;;;;;6.91;85.96;99236.13;5133657;28;20058;-62
2022/11/22 11:57:03;;;;;;;4.63;1.60;;;;;;;6.92;85.81;99240.47;5133807;28;20055;-63